createdAt,value
2023-07-04T00:01:12.047Z,24.00
2023-07-04T00:03:42.392Z,23.25
2023-07-04T00:06:13.328Z,21.25
2023-07-04T00:08:40.925Z,24.25
2023-07-04T00:11:09.503Z,23.25
2023-07-04T00:13:38.710Z,24.25
2023-07-04T00:16:08.483Z,22.50
2023-07-04T00:18:38.054Z,22.00
2023-07-04T00:21:13.326Z,20.50
2023-07-04T00:23:43.760Z,20.50
2023-07-04T00:26:10.940Z,21.00
2023-07-04T00:28:42.160Z,24.75
2023-07-04T00:31:11.777Z,25.00
2023-07-04T00:33:40.830Z,24.50
2023-07-04T00:36:14.277Z,23.50
2023-07-04T00:38:42.555Z,24.00
2023-07-04T00:41:11.107Z,22.25
2023-07-04T00:44:21.029Z,23.50
2023-07-04T00:46:55.816Z,26.00
2023-07-04T00:49:44.361Z,27.00
2023-07-04T00:52:18.654Z,26.25
2023-07-04T00:54:54.177Z,23.00
2023-07-04T00:57:33.331Z,24.50
2023-07-04T01:00:18.076Z,23.00
2023-07-04T01:02:51.810Z,26.75
2023-07-04T01:05:36.647Z,22.25
2023-07-04T01:08:11.429Z,23.25
2023-07-04T01:10:43.891Z,24.25
2023-07-04T01:13:30.710Z,24.50
2023-07-04T01:15:57.785Z,23.75
2023-07-04T01:18:24.762Z,22.00
2023-07-04T01:20:53.827Z,24.00
2023-07-04T01:23:39.966Z,24.25
2023-07-04T01:26:27.804Z,24.50
2023-07-04T01:28:55.919Z,25.50
2023-07-04T01:31:26.508Z,22.50
2023-07-04T01:33:59.387Z,24.25
2023-07-04T01:36:32.052Z,23.00
2023-07-04T01:38:59.463Z,23.25
2023-07-04T01:41:27.115Z,21.00
2023-07-04T01:44:00.443Z,24.00
2023-07-04T01:46:27.579Z,23.50
2023-07-04T01:48:54.803Z,22.25
2023-07-04T01:51:34.031Z,22.50
2023-07-04T01:54:02.064Z,23.50
2023-07-04T01:56:31.372Z,22.00
2023-07-04T01:58:58.651Z,24.75
2023-07-04T02:01:26.355Z,21.75
2023-07-04T02:03:54.275Z,23.00
2023-07-04T02:06:21.756Z,23.00
2023-07-04T02:08:49.138Z,23.00
2023-07-04T02:11:16.332Z,20.25
2023-07-04T02:13:46.003Z,22.25
2023-07-04T02:16:13.762Z,23.25
2023-07-04T02:18:40.814Z,23.25
2023-07-04T02:21:08.022Z,22.50
2023-07-04T02:23:36.736Z,24.25
2023-07-04T02:26:03.887Z,21.00
2023-07-04T02:28:30.930Z,23.00
2023-07-04T02:31:00.596Z,23.00
2023-07-04T02:33:28.529Z,24.50
2023-07-04T02:35:55.618Z,22.50
2023-07-04T02:38:23.008Z,24.75
2023-07-04T02:40:52.770Z,22.25
2023-07-04T02:43:20.497Z,21.75
2023-07-04T02:45:47.609Z,24.00
2023-07-04T02:48:15.938Z,22.75
2023-07-04T02:50:43.242Z,21.75
2023-07-04T02:53:10.227Z,21.00
2023-07-04T02:55:37.396Z,22.00
2023-07-04T02:58:05.600Z,22.25
2023-07-04T03:00:35.254Z,21.00
2023-07-04T03:03:02.559Z,21.00
2023-07-04T03:05:29.989Z,23.00
2023-07-04T03:07:56.981Z,22.50
2023-07-04T03:10:24.099Z,20.25
2023-07-04T03:12:51.180Z,22.50
2023-07-04T03:15:18.536Z,23.50
2023-07-04T03:17:50.096Z,21.00
2023-07-04T03:20:17.254Z,23.00
2023-07-04T03:22:45.695Z,22.00
2023-07-04T03:25:13.911Z,21.25
2023-07-04T03:27:41.505Z,21.50
2023-07-04T03:30:10.724Z,23.00
2023-07-04T03:32:39.992Z,23.00
2023-07-04T03:35:08.433Z,22.25
2023-07-04T03:37:37.800Z,24.50
2023-07-04T03:40:10.061Z,22.50
2023-07-04T03:42:40.119Z,23.00
2023-07-04T03:45:08.532Z,23.75
2023-07-04T03:47:36.817Z,22.50
2023-07-04T03:50:05.214Z,23.00
2023-07-04T03:52:33.178Z,22.25
2023-07-04T03:55:00.615Z,22.50
2023-07-04T03:57:29.355Z,23.00
2023-07-04T03:59:56.556Z,22.50
2023-07-04T04:02:23.559Z,22.75
2023-07-04T04:04:50.925Z,21.00
2023-07-04T04:07:19.532Z,23.25
2023-07-04T04:09:47.045Z,24.50
2023-07-04T04:12:14.294Z,24.50
2023-07-04T04:14:41.868Z,26.00
2023-07-04T04:17:09.113Z,26.50
2023-07-04T04:19:36.995Z,26.50
2023-07-04T04:22:04.944Z,25.50
2023-07-04T04:24:32.745Z,27.25
2023-07-04T04:27:04.700Z,27.00
2023-07-04T04:29:31.806Z,26.75
2023-07-04T04:31:59.029Z,25.25
2023-07-04T04:34:26.673Z,27.50
2023-07-04T04:36:53.811Z,28.75
2023-07-04T04:39:20.845Z,25.00
2023-07-04T04:41:47.925Z,26.50
2023-07-04T04:44:15.169Z,28.50
2023-07-04T04:46:50.399Z,29.00
2023-07-04T04:49:22.781Z,27.75
2023-07-04T04:51:53.351Z,31.25
2023-07-04T04:54:20.624Z,29.00
2023-07-04T04:56:47.741Z,29.25
2023-07-04T04:59:14.959Z,31.50
2023-07-04T05:01:42.656Z,32.25
2023-07-04T05:04:10.082Z,30.00
2023-07-04T05:06:38.097Z,32.00
2023-07-04T05:09:07.307Z,32.50
2023-07-04T05:11:34.734Z,31.50
2023-07-04T05:14:02.702Z,31.25
2023-07-04T05:16:30.411Z,32.25
2023-07-04T05:18:58.165Z,31.75
2023-07-04T05:21:26.034Z,31.00
2023-07-04T05:23:54.161Z,31.25
2023-07-04T05:26:26.308Z,29.75
2023-07-04T05:28:55.392Z,32.75
2023-07-04T05:31:28.088Z,30.75
2023-07-04T05:33:56.882Z,32.00
2023-07-04T05:36:26.409Z,32.00
2023-07-04T05:38:55.963Z,31.75
2023-07-04T05:41:28.817Z,30.00
2023-07-04T05:43:57.709Z,28.75
2023-07-04T05:46:25.506Z,29.00
2023-07-04T05:48:53.034Z,29.00
2023-07-04T05:51:21.490Z,27.00
2023-07-04T05:53:50.880Z,27.00
2023-07-04T05:56:29.947Z,27.40
2023-07-04T05:58:59.831Z,26.80
2023-07-04T06:01:29.576Z,26.40
2023-07-04T06:03:58.139Z,25.00
2023-07-04T06:06:31.762Z,25.00
2023-07-04T06:09:00.510Z,25.60
2023-07-04T06:11:31.704Z,25.00
2023-07-04T06:14:04.036Z,23.80
2023-07-04T06:16:31.825Z,25.40
2023-07-04T06:19:00.680Z,26.40
2023-07-04T06:21:42.420Z,29.80
2023-07-04T06:24:11.892Z,22.00
2023-07-04T06:26:39.142Z,21.00
2023-07-04T06:29:06.780Z,23.20
2023-07-04T06:31:34.538Z,23.40
2023-07-04T06:34:02.121Z,22.40
2023-07-04T06:36:30.198Z,23.80
2023-07-04T06:39:01.334Z,26.00
2023-07-04T06:41:28.806Z,24.60
2023-07-04T06:43:55.971Z,25.20
2023-07-04T06:46:23.668Z,25.80
2023-07-04T06:48:52.273Z,27.00
2023-07-04T06:51:20.897Z,25.60
2023-07-04T06:53:48.824Z,27.00
2023-07-04T06:56:22.260Z,26.80
2023-07-04T06:58:54.793Z,27.00
2023-07-04T07:01:24.729Z,26.40
2023-07-04T07:03:52.982Z,26.80
2023-07-04T07:06:22.143Z,27.60
2023-07-04T07:08:49.296Z,28.00
2023-07-04T07:11:19.095Z,30.00
2023-07-04T07:13:48.132Z,30.40
2023-07-04T07:16:25.903Z,30.80
2023-07-04T07:18:55.003Z,29.00
2023-07-04T07:21:26.895Z,33.00
2023-07-04T07:23:57.890Z,27.00
2023-07-04T07:26:27.810Z,28.80
2023-07-04T07:28:56.294Z,28.00
2023-07-04T07:31:32.758Z,28.60
2023-07-04T07:34:01.877Z,27.80
2023-07-04T07:36:32.209Z,26.60
2023-07-04T07:39:04.257Z,27.80
2023-07-04T07:41:34.505Z,27.20
2023-07-04T07:44:02.209Z,27.40
2023-07-04T07:46:29.571Z,30.00
2023-07-04T07:48:57.370Z,29.20
2023-07-04T07:51:29.131Z,26.00
2023-07-04T07:53:57.548Z,24.00
2023-07-04T07:56:27.477Z,21.80
2023-07-04T07:58:54.571Z,23.80
2023-07-04T08:01:22.585Z,24.60
2023-07-04T08:03:51.436Z,22.40
2023-07-04T08:06:34.153Z,24.20
2023-07-04T08:09:03.026Z,24.60
2023-07-04T08:11:31.258Z,23.80
2023-07-04T08:13:59.742Z,24.20
2023-07-04T08:16:48.808Z,25.60
2023-07-04T08:19:18.450Z,26.40
2023-07-04T08:21:46.747Z,27.00
2023-07-04T08:24:16.279Z,26.80
2023-07-04T08:26:47.267Z,26.60
2023-07-04T08:29:15.400Z,26.80
2023-07-04T08:31:43.034Z,19.00
2023-07-04T08:34:13.419Z,26.00
2023-07-04T08:36:42.485Z,26.80
2023-07-04T08:39:10.768Z,26.80
2023-07-04T08:41:58.927Z,27.00
2023-07-04T08:44:42.993Z,26.20
2023-07-04T08:47:13.294Z,22.20
2023-07-04T08:49:51.581Z,25.80
2023-07-04T08:52:42.820Z,23.40
2023-07-04T08:55:13.774Z,24.60
2023-07-04T08:57:46.919Z,22.00
2023-07-04T09:00:25.440Z,21.20
2023-07-04T09:02:58.695Z,22.00
2023-07-04T09:05:34.672Z,20.60
2023-07-04T09:08:17.772Z,20.40
2023-07-04T09:10:51.138Z,20.20
2023-07-04T09:13:32.438Z,19.20
2023-07-04T09:16:03.391Z,15.00
2023-07-04T09:18:50.401Z,13.20
2023-07-04T09:21:20.347Z,10.00
2023-07-04T09:23:50.405Z,7.20
2023-07-04T09:26:32.087Z,11.40
2023-07-04T09:28:59.670Z,10.40
2023-07-04T09:31:32.510Z,10.20
2023-07-04T09:34:06.782Z,12.00
2023-07-04T09:36:38.368Z,9.00
2023-07-04T09:39:06.206Z,8.80
2023-07-04T09:41:40.377Z,8.20
2023-07-04T09:44:27.894Z,7.60
2023-07-04T09:46:58.086Z,6.60
2023-07-04T09:49:36.540Z,7.60
2023-07-04T09:52:23.392Z,8.00
2023-07-04T09:55:11.820Z,6.00
2023-07-04T09:57:40.273Z,7.00
2023-07-04T10:00:17.168Z,9.20
2023-07-04T10:02:45.572Z,8.80
2023-07-04T10:05:33.013Z,11.20
2023-07-04T10:08:12.119Z,12.40
2023-07-04T10:10:50.041Z,12.80
2023-07-04T10:13:20.535Z,18.00
2023-07-04T10:15:48.315Z,16.40
2023-07-04T10:18:29.172Z,19.00
2023-07-04T10:20:58.877Z,18.40
2023-07-04T10:23:27.879Z,20.80
2023-07-04T10:25:58.178Z,16.00
2023-07-04T10:28:28.838Z,18.40
2023-07-04T10:31:01.392Z,19.80
2023-07-04T10:33:37.821Z,18.20
2023-07-04T10:36:09.510Z,19.00
2023-07-04T10:38:47.506Z,17.00
2023-07-04T10:41:25.274Z,11.00
2023-07-04T10:44:00.706Z,12.00
2023-07-04T10:46:43.800Z,10.40
2023-07-04T10:49:17.184Z,11.00
2023-07-04T10:51:46.168Z,10.40
2023-07-04T10:54:14.928Z,8.40
2023-07-04T10:56:47.368Z,8.40
2023-07-04T10:59:24.679Z,8.00
2023-07-04T11:01:56.979Z,7.80
2023-07-04T11:04:34.799Z,8.60
2023-07-04T11:07:14.497Z,9.00
2023-07-04T11:09:43.001Z,7.00
2023-07-04T11:12:17.165Z,7.20
2023-07-04T11:14:46.691Z,8.60
2023-07-04T11:17:22.963Z,8.40
2023-07-04T11:19:57.154Z,11.00
2023-07-04T11:22:58.441Z,10.40
2023-07-04T11:25:54.408Z,11.20
2023-07-04T11:28:33.728Z,9.80
2023-07-04T11:31:13.180Z,9.00
2023-07-04T11:33:56.376Z,7.40
2023-07-04T11:36:30.397Z,9.00
2023-07-04T11:39:07.303Z,11.60
2023-07-04T11:41:39.460Z,8.20
2023-07-04T11:44:31.809Z,11.80
2023-07-04T11:47:03.545Z,11.00
2023-07-04T11:49:33.770Z,10.40
2023-07-04T11:52:26.447Z,10.00
2023-07-04T11:55:18.357Z,8.40
2023-07-04T11:58:00.620Z,9.60
2023-07-04T12:00:31.497Z,9.40
2023-07-04T12:03:14.700Z,9.80
2023-07-04T12:05:42.273Z,8.40
2023-07-04T12:08:15.387Z,8.00
2023-07-04T12:10:43.242Z,10.00
2023-07-04T12:13:10.644Z,11.60
2023-07-04T12:15:41.028Z,10.60
2023-07-04T12:18:19.520Z,10.20
2023-07-04T12:20:47.198Z,13.00
2023-07-04T12:23:16.556Z,11.80
2023-07-04T12:25:45.985Z,14.00
2023-07-04T12:28:15.620Z,12.40
2023-07-04T12:33:27.352Z,12.60
2023-07-04T12:36:01.000Z,12.80
2023-07-04T12:38:30.854Z,15.80
2023-07-04T12:40:59.196Z,15.80
2023-07-04T12:51:22.656Z,16.00
2023-07-04T12:53:50.938Z,15.00
2023-07-04T12:56:18.560Z,12.80
2023-07-04T12:58:48.434Z,14.00
2023-07-04T13:01:30.411Z,9.40
2023-07-04T13:04:01.038Z,12.40
2023-07-04T13:06:31.771Z,12.20
2023-07-04T13:08:59.827Z,16.20
2023-07-04T13:11:28.574Z,13.80
2023-07-04T13:14:12.022Z,12.20
2023-07-04T13:16:41.458Z,12.80
2023-07-04T13:19:11.673Z,13.00
2023-07-04T13:21:42.519Z,15.00
2023-07-04T13:27:17.657Z,12.80
2023-07-04T13:30:22.024Z,13.80
2023-07-04T13:35:37.062Z,12.00
2023-07-04T13:40:40.478Z,13.40
2023-07-04T13:45:45.644Z,12.80
2023-07-04T13:48:12.951Z,13.40
2023-07-04T13:50:40.628Z,11.20
2023-07-04T13:55:39.993Z,13.60
2023-07-04T13:58:07.489Z,12.20
2023-07-04T14:00:54.076Z,13.00
2023-07-04T14:05:57.535Z,13.60
2023-07-04T14:08:28.504Z,14.40
2023-07-04T14:11:02.731Z,13.80
2023-07-04T14:13:32.859Z,15.60
2023-07-04T14:21:10.197Z,15.20
2023-07-04T14:23:38.134Z,14.80
2023-07-04T14:26:11.874Z,15.80
2023-07-04T14:28:39.160Z,16.00
2023-07-04T14:31:06.946Z,21.20
2023-07-04T14:33:34.316Z,21.20
2023-07-04T14:36:04.963Z,10.00
2023-07-04T14:38:33.602Z,11.40
2023-07-04T14:43:37.415Z,13.00
2023-07-04T14:46:08.152Z,13.40
2023-07-04T14:48:37.233Z,14.40
2023-07-04T14:51:09.156Z,9.60
2023-07-04T14:53:37.630Z,12.80
2023-07-04T14:56:08.421Z,11.40
2023-07-04T14:58:35.852Z,12.20
2023-07-04T15:01:05.047Z,11.60
2023-07-04T15:03:34.949Z,11.20
2023-07-04T15:06:05.007Z,12.00
2023-07-04T15:08:33.854Z,8.40
2023-07-04T15:11:06.082Z,8.40
2023-07-04T15:13:34.882Z,10.80
2023-07-04T15:16:07.487Z,10.60
2023-07-04T15:18:38.539Z,11.80
2023-07-04T15:21:08.309Z,11.80
2023-07-04T15:23:36.276Z,7.40
2023-07-04T15:26:20.513Z,9.80
2023-07-04T15:28:52.775Z,11.00
2023-07-04T15:31:20.323Z,17.80
2023-07-04T15:33:47.580Z,12.60
2023-07-04T15:36:14.681Z,11.00
2023-07-04T15:38:43.054Z,9.00
2023-07-04T15:41:11.004Z,11.40
2023-07-04T15:43:38.929Z,12.60
2023-07-04T15:46:08.835Z,11.40
2023-07-04T15:48:38.771Z,11.60
2023-07-04T15:51:08.053Z,11.80
2023-07-04T15:53:35.648Z,10.80
2023-07-04T15:56:20.498Z,9.80
2023-07-04T15:58:48.340Z,11.60
2023-07-04T16:01:15.466Z,12.60
2023-07-04T16:03:43.539Z,10.80
2023-07-04T16:06:11.713Z,11.80
2023-07-04T16:08:40.888Z,11.00
2023-07-04T16:11:11.737Z,13.00
2023-07-04T16:13:40.697Z,12.60
2023-07-04T16:16:09.508Z,11.20
2023-07-04T16:18:37.001Z,15.80
2023-07-04T16:21:04.820Z,11.40
2023-07-04T16:23:31.836Z,14.40
2023-07-04T16:26:00.583Z,12.20
2023-07-04T16:28:28.095Z,17.00
2023-07-04T16:31:02.853Z,13.60
2023-07-04T16:33:30.957Z,13.00
2023-07-04T16:35:58.188Z,14.60
2023-07-04T16:38:26.659Z,13.00
2023-07-04T16:40:55.421Z,11.20
2023-07-04T16:43:23.612Z,13.80
2023-07-04T16:45:51.612Z,12.00
2023-07-04T16:48:18.932Z,11.60
2023-07-04T16:50:46.285Z,14.80
2023-07-04T16:53:13.460Z,9.40
2023-07-04T16:55:40.588Z,12.20
2023-07-04T16:58:07.653Z,14.00
2023-07-04T17:00:36.011Z,10.40
2023-07-04T17:03:03.950Z,11.40
2023-07-04T17:05:32.044Z,11.20
2023-07-04T17:08:00.368Z,8.60
2023-07-04T17:10:27.974Z,12.00
2023-07-04T17:12:57.864Z,11.20
2023-07-04T17:15:24.979Z,13.40
2023-07-04T17:17:52.196Z,7.80
2023-07-04T17:20:21.102Z,11.60
2023-07-04T17:22:48.482Z,10.20
2023-07-04T17:25:15.888Z,12.60
2023-07-04T17:27:43.235Z,11.00
2023-07-04T17:30:11.253Z,11.40
2023-07-04T17:32:38.605Z,10.60
2023-07-04T17:35:07.012Z,9.60
2023-07-04T17:37:34.485Z,13.20
2023-07-04T17:40:02.420Z,12.80
2023-07-04T17:42:30.737Z,12.00
2023-07-04T17:44:59.368Z,13.80
2023-07-04T17:47:29.965Z,24.60
2023-07-04T17:49:57.613Z,13.60
2023-07-04T17:52:25.894Z,12.40
2023-07-04T17:54:53.049Z,13.80
2023-07-04T17:57:27.907Z,16.00
2023-07-04T17:59:56.579Z,11.40
2023-07-04T18:02:24.810Z,11.00
2023-07-04T18:04:56.314Z,12.80
2023-07-04T18:07:24.864Z,12.80
2023-07-04T18:09:53.555Z,13.00
2023-07-04T18:12:25.841Z,13.00
2023-07-04T18:14:56.553Z,17.40
2023-07-04T18:17:23.814Z,16.80
2023-07-04T18:19:57.925Z,20.20
2023-07-04T18:22:26.767Z,21.00
2023-07-04T18:24:55.217Z,21.80
2023-07-04T18:27:22.873Z,21.20
2023-07-04T18:29:55.746Z,20.60
2023-07-04T18:32:23.773Z,18.20
2023-07-04T18:34:55.387Z,19.00
2023-07-04T18:37:24.803Z,26.00
2023-07-04T18:39:52.018Z,22.20
2023-07-04T18:42:19.125Z,21.40
2023-07-04T18:44:46.164Z,19.00
2023-07-04T18:47:13.735Z,20.80
2023-07-04T18:49:40.795Z,20.40
2023-07-04T18:52:08.181Z,21.00
2023-07-04T18:54:35.221Z,18.60
2023-07-04T18:57:02.409Z,16.80
2023-07-04T18:59:30.563Z,16.20
2023-07-04T19:01:57.727Z,19.60
2023-07-04T19:04:25.208Z,17.80
2023-07-04T19:06:52.625Z,18.20
2023-07-04T19:09:19.702Z,19.60
2023-07-04T19:11:48.125Z,17.80
2023-07-04T19:14:20.897Z,18.00
2023-07-04T19:16:57.515Z,19.20
2023-07-04T19:19:34.632Z,19.60
2023-07-04T19:22:08.397Z,14.00
2023-07-04T19:24:39.322Z,14.60
2023-07-04T19:27:11.118Z,18.40
2023-07-04T19:29:39.181Z,19.00
2023-07-04T19:32:07.725Z,17.60
2023-07-04T19:34:36.369Z,15.60
2023-07-04T19:37:04.659Z,16.60
2023-07-04T19:39:36.298Z,16.60
2023-07-04T19:42:04.377Z,18.60
2023-07-04T19:44:33.874Z,19.80
2023-07-04T19:47:00.982Z,19.00
2023-07-04T19:49:34.431Z,17.40
2023-07-04T19:52:05.445Z,18.80
2023-07-04T19:54:36.151Z,19.00
2023-07-04T19:57:03.185Z,20.80
2023-07-04T19:59:30.181Z,18.20
2023-07-04T20:01:57.207Z,18.60
2023-07-04T20:04:24.346Z,16.20
2023-07-04T20:06:51.454Z,19.00
2023-07-04T20:09:31.882Z,19.00
2023-07-04T20:12:04.662Z,19.00
2023-07-04T20:14:33.130Z,19.80
2023-07-04T20:17:10.818Z,20.20
2023-07-04T20:19:48.904Z,20.00
2023-07-04T20:22:17.018Z,16.80
2023-07-04T20:24:56.505Z,17.60
2023-07-04T20:27:38.431Z,18.40
2023-07-04T20:30:14.978Z,17.40
2023-07-04T20:32:53.719Z,16.20
2023-07-04T20:35:22.386Z,16.80
2023-07-04T20:37:49.758Z,18.20
2023-07-04T20:40:16.997Z,19.60
2023-07-04T20:42:48.718Z,21.80
2023-07-04T20:45:16.786Z,23.00
2023-07-04T20:47:44.109Z,25.20
2023-07-04T20:50:12.182Z,25.80
2023-07-04T20:52:41.682Z,27.00
2023-07-04T20:55:10.776Z,23.80
2023-07-04T20:57:38.545Z,22.40
2023-07-04T21:00:16.477Z,19.80
2023-07-04T21:02:44.804Z,19.20
2023-07-04T21:05:12.584Z,15.00
2023-07-04T21:07:41.417Z,15.60
2023-07-04T21:10:10.944Z,17.60
2023-07-04T21:12:38.760Z,18.20
2023-07-04T21:15:07.897Z,20.60
2023-07-04T21:17:40.251Z,20.80
2023-07-04T21:20:09.833Z,20.80
2023-07-04T21:22:38.304Z,20.00
2023-07-04T21:25:06.848Z,18.20
2023-07-04T21:27:34.375Z,21.00
2023-07-04T21:30:02.996Z,19.20
2023-07-04T21:32:31.203Z,19.00
2023-07-04T21:34:58.288Z,19.00
2023-07-04T21:37:26.253Z,19.00
2023-07-04T21:39:53.435Z,19.00
2023-07-04T21:42:21.188Z,18.20
2023-07-04T21:44:54.277Z,16.80
2023-07-04T21:47:22.034Z,20.20
2023-07-04T21:49:50.243Z,18.80
2023-07-04T21:52:17.480Z,19.40
2023-07-04T21:54:45.553Z,19.00
2023-07-04T21:57:12.977Z,20.20
2023-07-04T21:59:40.528Z,19.40
2023-07-04T22:02:07.599Z,20.20
2023-07-04T22:04:36.670Z,21.60
2023-07-04T22:07:04.150Z,25.00
2023-07-04T22:09:31.277Z,23.20
2023-07-04T22:11:59.876Z,21.00
2023-07-04T22:14:36.307Z,14.40
2023-07-04T22:17:05.982Z,22.00
2023-07-04T22:19:33.507Z,22.00
2023-07-04T22:22:00.685Z,23.00
2023-07-04T22:24:29.596Z,22.40
2023-07-04T22:26:56.679Z,21.00
2023-07-04T22:29:23.755Z,22.20
2023-07-04T22:31:51.392Z,22.00
2023-07-04T22:34:18.432Z,19.00
2023-07-04T22:36:45.444Z,21.20
2023-07-04T22:39:12.552Z,22.00
2023-07-04T22:41:41.426Z,18.40
2023-07-04T22:44:08.566Z,22.20
2023-07-04T22:46:35.776Z,19.00
2023-07-04T22:49:02.852Z,19.20
2023-07-04T22:51:30.331Z,18.80
2023-07-04T22:53:58.437Z,16.00
2023-07-04T22:56:25.602Z,15.60
2023-07-04T22:58:53.331Z,21.20
2023-07-04T23:01:23.808Z,19.00
2023-07-04T23:03:51.135Z,19.20
2023-07-04T23:06:19.164Z,18.40
2023-07-04T23:08:48.304Z,18.20
2023-07-04T23:11:18.167Z,20.20
2023-07-04T23:13:47.482Z,14.60
2023-07-04T23:16:20.409Z,19.80
2023-07-04T23:18:50.282Z,19.00
2023-07-04T23:21:18.715Z,17.00
2023-07-04T23:23:47.752Z,19.80
2023-07-04T23:26:28.189Z,19.40
2023-07-04T23:28:55.832Z,19.40
2023-07-04T23:31:23.506Z,19.40
2023-07-04T23:33:51.232Z,19.20
2023-07-04T23:36:20.797Z,19.00
2023-07-04T23:38:49.734Z,21.00
2023-07-04T23:41:17.616Z,20.40
2023-07-04T23:43:46.935Z,19.60
2023-07-04T23:46:14.695Z,18.00
2023-07-04T23:48:42.052Z,20.40
2023-07-04T23:51:10.017Z,18.00
2023-07-04T23:53:37.530Z,20.80
2023-07-04T23:56:04.815Z,17.60
2023-07-04T23:58:32.031Z,19.40
